Time;durP1;ratioP1;P1;durP2;ratioP2;P2;SDS_P1;SDS_P2;PMS_P1;PMS_P2;Temp;Humidity;BMP_temperature;BMP_pressure;BME280_temperature;BME280_humidity;BME280_pressure;Samples;Min_cycle;Max_cycle;Signal;HPM_P1;HPM_P2
2022/04/24 00:00:47;;;;;;;8.82;3.90;;;;;;;;;;6281893;22;20617;-63
2022/04/24 00:03:12;;;;;;;4.65;3.30;;;;;;;;;;6308836;22;20139;-63
2022/04/24 00:05:38;;;;;;;5.07;3.42;;;;;;;;;;6308822;22;20138;-63
2022/04/24 00:08:05;;;;;;;5.30;3.58;;;;;;;;;;6308720;22;20142;-63
2022/04/24 00:10:30;;;;;;;7.13;3.22;;;;;;;;;;6308898;22;20158;-63
2022/04/24 00:12:57;;;;;;;7.65;3.60;;;;;;;;;;6310148;22;20201;-63
2022/04/24 00:15:22;;;;;;;5.68;3.50;;;;;;;;;;6309012;22;20215;-63
2022/04/24 00:17:48;;;;;;;7.18;3.67;;;;;;;;;;6308631;22;20200;-63
2022/04/24 00:20:14;;;;;;;4.97;3.42;;;;;;;;;;6308727;22;20143;-63
2022/04/24 00:22:40;;;;;;;8.52;3.50;;;;;;;;;;6308790;22;20151;-63
2022/04/24 00:25:06;;;;;;;6.72;3.65;;;;;;;;;;6308707;22;20192;-63
2022/04/24 00:27:33;;;;;;;4.82;3.65;;;;;;;;;;6308652;22;20226;-63
2022/04/24 00:29:59;;;;;;;6.82;3.88;;;;;;;;;;6308430;22;20182;-63
2022/04/24 00:32:25;;;;;;;9.48;4.20;;;;;;;;;;6308457;22;20135;-63
2022/04/24 00:34:50;;;;;;;8.85;4.10;;;;;;;;;;6308579;22;20142;-63
2022/04/24 00:37:16;;;;;;;6.03;3.90;;;;;;;;;;6309063;22;20170;-62
2022/04/24 00:39:42;;;;;;;6.15;3.50;;;;;;;;;;6308783;22;20573;-62
2022/04/24 00:42:09;;;;;;;6.75;3.60;;;;;;;;;;6308801;22;20139;-63
2022/04/24 00:44:35;;;;;;;7.95;4.15;;;;;;;;;;6308713;22;20154;-62
2022/04/24 00:47:03;;;;;;;10.18;4.00;;;;;;;;;;6308395;22;20147;-63
2022/04/24 00:49:30;;;;;;;7.72;3.85;;;;;;;;;;6308632;22;20200;-62
2022/04/24 00:51:56;;;;;;;6.93;3.70;;;;;;;;;;6308421;22;20210;-63
2022/04/24 00:54:23;;;;;;;7.13;4.13;;;;;;;;;;6308274;22;20167;-62
2022/04/24 00:56:49;;;;;;;7.32;4.82;;;;;;;;;;6308805;22;20139;-62
2022/04/24 00:59:15;;;;;;;6.88;3.83;;;;;;;;;;6308274;22;20505;-62
2022/04/24 01:01:41;;;;;;;7.95;4.38;;;;;;;;;;6308348;22;20171;-62
2022/04/24 01:04:08;;;;;;;8.80;4.03;;;;;;;;;;6308230;22;20150;-62
2022/04/24 01:06:36;;;;;;;11.07;4.22;;;;;;;;;;6308617;22;20415;-62
2022/04/24 01:09:14;;;;;;;7.80;4.13;;;;;;;;;;6308637;22;20182;-63
2022/04/24 01:11:40;;;;;;;8.40;3.90;;;;;;;;;;6308403;22;20138;-63
2022/04/24 01:14:06;;;;;;;9.57;4.25;;;;;;;;;;6308554;22;20456;-62
2022/04/24 01:16:33;;;;;;;5.95;3.70;;;;;;;;;;6308369;22;20192;-62
2022/04/24 01:18:59;;;;;;;8.00;3.92;;;;;;;;;;6308521;22;20143;-63
2022/04/24 01:21:25;;;;;;;6.22;3.85;;;;;;;;;;6308228;22;20588;-63
2022/04/24 01:23:51;;;;;;;6.25;3.35;;;;;;;;;;6308376;22;20245;-63
2022/04/24 01:26:17;;;;;;;7.47;4.00;;;;;;;;;;6308193;22;20199;-63
2022/04/24 01:28:43;;;;;;;7.72;4.05;;;;;;;;;;6308243;22;20212;-63
2022/04/24 01:31:09;;;;;;;7.03;3.28;;;;;;;;;;6308505;22;20171;-63
2022/04/24 01:33:35;;;;;;;5.22;3.47;;;;;;;;;;6280775;22;20149;-63
2022/04/24 01:36:01;;;;;;;6.70;3.53;;;;;;;;;;6308123;22;20135;-63
2022/04/24 01:38:29;;;;;;;6.13;3.38;;;;;;;;;;6307880;22;20143;-63
2022/04/24 01:40:55;;;;;;;5.63;3.25;;;;;;;;;;6308578;22;20142;-63
2022/04/24 01:43:21;;;;;;;6.00;3.60;;;;;;;;;;6307954;22;20221;-63
2022/04/24 01:45:47;;;;;;;8.40;3.97;;;;;;;;;;6308353;22;20139;-63
2022/04/24 01:48:13;;;;;;;6.95;3.55;;;;;;;;;;6308156;22;20145;-63
2022/04/24 01:50:39;;;;;;;7.07;3.92;;;;;;;;;;6309979;22;20177;-63
2022/04/24 01:53:05;;;;;;;6.40;3.70;;;;;;;;;;6308217;22;20448;-61
2022/04/24 01:55:31;;;;;;;6.82;3.40;;;;;;;;;;6307914;22;20131;-62
2022/04/24 01:57:57;;;;;;;5.35;3.20;;;;;;;;;;6308016;22;20170;-62
2022/04/24 02:00:23;;;;;;;7.70;4.00;;;;;;;;;;6308259;22;20578;-62
2022/04/24 02:02:49;;;;;;;7.22;3.60;;;;;;;;;;6308680;22;20224;-61
2022/04/24 02:05:17;;;;;;;5.28;3.17;;;;;;;;;;6308065;22;20142;-62
2022/04/24 02:07:43;;;;;;;7.07;3.75;;;;;;;;;;6307922;22;20475;-62
2022/04/24 02:10:09;;;;;;;7.55;3.92;;;;;;;;;;6308182;22;20163;-62
2022/04/24 02:12:40;;;;;;;6.25;3.75;;;;;;;;;;6308220;22;20200;-61
2022/04/24 02:15:06;;;;;;;6.35;3.72;;;;;;;;;;6308879;22;20123;-61
2022/04/24 02:17:32;;;;;;;6.57;3.67;;;;;;;;;;6308164;22;20139;-62
2022/04/24 02:19:58;;;;;;;8.40;3.88;;;;;;;;;;6308396;22;20166;-60
2022/04/24 02:22:23;;;;;;;8.73;4.25;;;;;;;;;;6309019;22;20542;-62
2022/04/24 02:24:49;;;;;;;8.43;4.07;;;;;;;;;;6308032;22;20140;-62
2022/04/24 02:27:15;;;;;;;7.22;4.00;;;;;;;;;;6308471;22;20147;-62
2022/04/24 02:29:41;;;;;;;7.72;4.55;;;;;;;;;;6307667;22;20805;-62
2022/04/24 02:32:07;;;;;;;7.15;4.00;;;;;;;;;;6308358;22;20135;-62
2022/04/24 02:34:33;;;;;;;6.22;4.45;;;;;;;;;;6307955;22;20166;-61
2022/04/24 02:36:59;;;;;;;8.02;4.18;;;;;;;;;;6308636;22;20535;-62
2022/04/24 02:39:25;;;;;;;7.07;4.30;;;;;;;;;;6309096;22;20150;-62
2022/04/24 02:41:51;;;;;;;9.43;4.13;;;;;;;;;;6308767;22;20416;-63
2022/04/24 02:44:17;;;;;;;6.65;4.80;;;;;;;;;;6309314;22;20150;-62
2022/04/24 02:46:43;;;;;;;6.93;4.20;;;;;;;;;;6310875;22;20143;-63
2022/04/24 02:49:09;;;;;;;10.38;5.10;;;;;;;;;;6310673;22;20166;-62
2022/04/24 02:51:34;;;;;;;7.32;4.55;;;;;;;;;;6311084;22;20221;-63
2022/04/24 02:54:01;;;;;;;9.10;4.40;;;;;;;;;;6311261;22;20188;-63
2022/04/24 02:56:26;;;;;;;6.28;3.90;;;;;;;;;;6311865;22;20216;-63
2022/04/24 02:58:53;;;;;;;5.93;4.03;;;;;;;;;;6312879;22;20139;-64
2022/04/24 03:01:18;;;;;;;6.60;3.95;;;;;;;;;;6315898;22;20204;-63
2022/04/24 03:03:45;;;;;;;7.85;4.13;;;;;;;;;;6316805;22;20147;-63
2022/04/24 03:06:11;;;;;;;7.13;3.65;;;;;;;;;;6316410;22;20147;-63
2022/04/24 03:08:37;;;;;;;7.22;4.00;;;;;;;;;;6315179;22;20192;-63
2022/04/24 03:11:03;;;;;;;6.93;3.83;;;;;;;;;;6316088;22;20135;-63
2022/04/24 03:13:29;;;;;;;7.30;4.22;;;;;;;;;;6322799;22;20187;-63
2022/04/24 03:15:55;;;;;;;8.05;4.15;;;;;;;;;;6322888;22;20143;-63
2022/04/24 03:18:21;;;;;;;6.38;3.78;;;;;;;;;;6324101;22;20138;-63
2022/04/24 03:20:47;;;;;;;7.18;3.85;;;;;;;;;;6328572;22;20165;-62
2022/04/24 03:23:13;;;;;;;6.82;4.10;;;;;;;;;;6328941;22;20131;-63
2022/04/24 03:25:39;;;;;;;7.53;4.00;;;;;;;;;;6331169;22;20592;-61
2022/04/24 03:28:08;;;;;;;6.88;3.83;;;;;;;;;;6333897;22;20127;-64
2022/04/24 03:30:34;;;;;;;8.18;4.30;;;;;;;;;;6333240;22;20170;-63
2022/04/24 03:33:00;;;;;;;8.13;4.38;;;;;;;;;;6331985;22;20181;-63
2022/04/24 03:35:26;;;;;;;5.85;3.88;;;;;;;;;;6321412;22;20139;-64
2022/04/24 03:37:52;;;;;;;6.72;4.10;;;;;;;;;;6310082;22;20214;-62
2022/04/24 03:40:19;;;;;;;9.13;4.55;;;;;;;;;;6309120;22;20139;-62
2022/04/24 03:42:45;;;;;;;8.40;4.63;;;;;;;;;;6309975;22;20616;-63
2022/04/24 03:45:12;;;;;;;6.20;4.32;;;;;;;;;;6308996;22;20143;-63
2022/04/24 03:47:38;;;;;;;8.55;4.28;;;;;;;;;;6310055;22;20617;-63
2022/04/24 03:50:05;;;;;;;6.82;3.92;;;;;;;;;;6309054;22;20177;-62
2022/04/24 03:52:31;;;;;;;7.40;4.20;;;;;;;;;;6309442;22;20134;-63
2022/04/24 03:54:57;;;;;;;5.68;3.60;;;;;;;;;;6309300;22;20449;-63
2022/04/24 03:57:23;;;;;;;7.70;4.03;;;;;;;;;;6309213;22;20173;-64
2022/04/24 03:59:49;;;;;;;7.38;4.35;;;;;;;;;;6309126;22;20146;-62
2022/04/24 04:02:16;;;;;;;8.13;4.60;;;;;;;;;;6309806;22;20222;-64
2022/04/24 04:04:42;;;;;;;8.55;4.38;;;;;;;;;;6309337;22;20177;-63
2022/04/24 04:07:07;;;;;;;5.93;3.67;;;;;;;;;;6309072;22;20197;-62
2022/04/24 04:09:34;;;;;;;7.65;4.47;;;;;;;;;;6309580;22;20166;-63
2022/04/24 04:12:00;;;;;;;9.43;4.57;;;;;;;;;;6309168;22;20139;-63
2022/04/24 04:14:26;;;;;;;9.02;4.55;;;;;;;;;;6309362;22;20234;-63
2022/04/24 04:16:52;;;;;;;5.93;4.05;;;;;;;;;;6308819;22;20457;-63
2022/04/24 04:19:18;;;;;;;7.88;4.65;;;;;;;;;;6308926;22;20538;-63
2022/04/24 04:21:44;;;;;;;7.18;4.28;;;;;;;;;;6308633;22;20165;-62
2022/04/24 04:24:11;;;;;;;9.65;4.55;;;;;;;;;;6309089;22;20139;-62
2022/04/24 04:26:37;;;;;;;7.95;4.38;;;;;;;;;;6308914;22;20143;-63
2022/04/24 04:29:03;;;;;;;7.35;4.75;;;;;;;;;;6308567;22;20262;-63
2022/04/24 04:31:29;;;;;;;8.95;4.88;;;;;;;;;;6309035;22;20127;-62
2022/04/24 04:33:55;;;;;;;7.57;4.90;;;;;;;;;;6308969;22;20448;-63
2022/04/24 04:36:21;;;;;;;7.80;4.70;;;;;;;;;;6308922;22;20135;-63
2022/04/24 04:38:47;;;;;;;7.25;4.45;;;;;;;;;;6308674;22;20424;-63
2022/04/24 04:41:13;;;;;;;9.60;4.50;;;;;;;;;;6308330;22;20157;-63
2022/04/24 04:43:39;;;;;;;7.35;4.30;;;;;;;;;;6308803;22;20135;-64
2022/04/24 04:46:05;;;;;;;8.48;4.38;;;;;;;;;;6308733;22;20435;-63
2022/04/24 04:48:31;;;;;;;7.22;4.22;;;;;;;;;;6308334;22;20436;-63
2022/04/24 04:50:57;;;;;;;8.07;3.92;;;;;;;;;;6308670;22;20159;-63
2022/04/24 04:53:23;;;;;;;9.23;4.70;;;;;;;;;;6308842;22;20554;-63
2022/04/24 04:55:49;;;;;;;6.57;4.22;;;;;;;;;;6308364;22;20192;-63
2022/04/24 04:58:15;;;;;;;7.32;4.30;;;;;;;;;;6308362;22;20502;-63
2022/04/24 05:00:41;;;;;;;9.13;4.22;;;;;;;;;;6308213;22;20139;-63
2022/04/24 05:03:07;;;;;;;7.68;4.75;;;;;;;;;;6308448;22;20139;-63
2022/04/24 05:05:33;;;;;;;5.97;4.40;;;;;;;;;;6308382;22;20204;-62
2022/04/24 05:07:59;;;;;;;6.15;4.10;;;;;;;;;;6308647;22;20167;-63
2022/04/24 05:10:25;;;;;;;9.25;4.70;;;;;;;;;;6308473;22;20162;-63
2022/04/24 05:12:51;;;;;;;7.18;4.28;;;;;;;;;;6308391;22;20440;-63
2022/04/24 05:15:17;;;;;;;7.97;4.40;;;;;;;;;;6308199;22;20484;-63
2022/04/24 05:17:44;;;;;;;6.32;4.45;;;;;;;;;;6308299;22;20139;-63
2022/04/24 05:20:11;;;;;;;8.18;4.88;;;;;;;;;;6308365;22;20226;-63
2022/04/24 05:22:37;;;;;;;6.88;4.60;;;;;;;;;;6308340;22;20166;-64
2022/04/24 05:25:07;;;;;;;8.10;4.32;;;;;;;;;;6308113;22;20200;-64
2022/04/24 05:27:33;;;;;;;7.88;4.72;;;;;;;;;;6308667;22;20153;-63
2022/04/24 05:29:59;;;;;;;5.13;3.97;;;;;;;;;;6308051;22;20187;-61
2022/04/24 05:32:25;;;;;;;7.38;4.03;;;;;;;;;;6308344;22;20150;-62
2022/04/24 05:34:51;;;;;;;6.38;4.25;;;;;;;;;;6308194;22;20135;-62
2022/04/24 05:37:17;;;;;;;7.80;4.18;;;;;;;;;;6307899;22;20145;-62
2022/04/24 05:39:43;;;;;;;9.52;4.70;;;;;;;;;;6308212;22;20139;-63
2022/04/24 05:42:09;;;;;;;5.60;3.88;;;;;;;;;;6307993;22;20139;-62
2022/04/24 05:44:34;;;;;;;8.45;4.18;;;;;;;;;;6308085;22;20149;-63
2022/04/24 05:47:00;;;;;;;9.18;4.65;;;;;;;;;;6307900;22;20497;-63
2022/04/24 05:49:26;;;;;;;5.70;4.20;;;;;;;;;;6308383;22;20581;-63
2022/04/24 05:51:52;;;;;;;6.75;4.35;;;;;;;;;;6307848;22;20496;-62
2022/04/24 05:54:18;;;;;;;6.22;3.78;;;;;;;;;;6308075;22;20135;-62
2022/04/24 05:56:44;;;;;;;5.85;3.80;;;;;;;;;;6280954;22;20150;-62
2022/04/24 05:59:10;;;;;;;6.50;3.45;;;;;;;;;;6308496;22;20146;-62
2022/04/24 06:01:36;;;;;;;7.95;3.88;;;;;;;;;;6308024;22;20138;-62
2022/04/24 06:04:02;;;;;;;5.50;4.05;;;;;;;;;;6308523;22;20147;-63
2022/04/24 06:06:30;;;;;;;5.80;3.75;;;;;;;;;;6308172;22;20166;-61
2022/04/24 06:08:56;;;;;;;6.47;4.10;;;;;;;;;;6308387;22;20178;-62
2022/04/24 06:11:22;;;;;;;6.70;4.35;;;;;;;;;;6307816;22;20143;-63
2022/04/24 06:13:48;;;;;;;8.45;4.25;;;;;;;;;;6308245;22;20139;-62
2022/04/24 06:16:14;;;;;;;6.85;3.80;;;;;;;;;;6308218;22;20476;-63
2022/04/24 06:18:40;;;;;;;6.28;3.78;;;;;;;;;;6308868;22;20139;-61
2022/04/24 06:21:07;;;;;;;4.93;3.70;;;;;;;;;;6310158;22;20417;-62
2022/04/24 06:23:33;;;;;;;5.47;3.33;;;;;;;;;;6313016;22;20150;-63
2022/04/24 06:25:59;;;;;;;6.63;3.50;;;;;;;;;;6314677;22;20142;-63
2022/04/24 06:28:25;;;;;;;4.65;3.28;;;;;;;;;;6315317;22;20569;-63
2022/04/24 06:30:51;;;;;;;6.80;3.42;;;;;;;;;;6326038;22;20574;-62
2022/04/24 06:33:17;;;;;;;7.30;3.45;;;;;;;;;;6317058;22;20139;-64
2022/04/24 06:35:45;;;;;;;4.25;3.17;;;;;;;;;;6314389;22;20146;-63
2022/04/24 06:38:11;;;;;;;7.10;3.20;;;;;;;;;;6312244;22;20154;-63
2022/04/24 06:40:38;;;;;;;7.07;3.13;;;;;;;;;;6310493;22;20682;-63
2022/04/24 06:43:07;;;;;;;6.53;3.47;;;;;;;;;;6310319;22;20446;-62
2022/04/24 06:45:43;;;;;;;3.70;2.78;;;;;;;;;;6309837;22;20139;-63
2022/04/24 06:48:10;;;;;;;4.85;3.25;;;;;;;;;;6309903;22;20550;-64
2022/04/24 06:50:37;;;;;;;7.82;3.38;;;;;;;;;;6310311;22;20171;-63
2022/04/24 06:53:04;;;;;;;8.02;3.63;;;;;;;;;;6310188;22;20139;-63
2022/04/24 06:55:31;;;;;;;6.95;3.95;;;;;;;;;;6309591;22;20135;-63
2022/04/24 06:57:58;;;;;;;7.03;3.63;;;;;;;;;;6309519;22;20138;-63
2022/04/24 07:00:25;;;;;;;7.40;4.18;;;;;;;;;;6309765;22;20170;-63
2022/04/24 07:02:51;;;;;;;7.68;4.30;;;;;;;;;;6309887;22;20139;-62
2022/04/24 07:05:17;;;;;;;5.40;3.40;;;;;;;;;;6309539;22;20150;-62
2022/04/24 07:07:43;;;;;;;6.85;3.30;;;;;;;;;;6309412;22;20151;-62
2022/04/24 07:10:10;;;;;;;5.90;3.50;;;;;;;;;;6309331;22;20466;-62
2022/04/24 07:12:45;;;;;;;5.00;3.30;;;;;;;;;;6309180;22;20139;-62
2022/04/24 07:15:13;;;;;;;6.72;3.25;;;;;;;;;;6309624;22;20153;-62
2022/04/24 07:17:39;;;;;;;6.90;4.80;;;;;;;;;;6309936;22;20200;-64
2022/04/24 07:20:05;;;;;;;12.13;5.30;;;;;;;;;;6309729;22;20147;-63
2022/04/24 07:22:40;;;;;;;7.47;4.47;;;;;;;;;;6309230;22;20139;-63
2022/04/24 07:25:06;;;;;;;7.60;4.97;;;;;;;;;;6309472;22;20437;-63
2022/04/24 07:27:32;;;;;;;5.88;4.55;;;;;;;;;;6309051;22;20147;-64
2022/04/24 07:29:58;;;;;;;7.20;3.42;;;;;;;;;;6308787;22;20612;-63
2022/04/24 07:32:24;;;;;;;4.53;3.08;;;;;;;;;;6309110;22;20146;-63
2022/04/24 07:34:50;;;;;;;8.88;4.38;;;;;;;;;;6309278;22;20547;-64
2022/04/24 07:37:17;;;;;;;6.43;3.65;;;;;;;;;;6309071;22;20139;-62
2022/04/24 07:39:42;;;;;;;5.40;4.35;;;;;;;;;;6309474;22;20146;-64
2022/04/24 07:42:08;;;;;;;6.25;4.55;;;;;;;;;;6309254;22;20181;-62
2022/04/24 07:44:35;;;;;;;7.20;5.38;;;;;;;;;;6309341;22;20164;-63
2022/04/24 07:47:01;;;;;;;6.50;5.28;;;;;;;;;;6309604;22;20570;-63
2022/04/24 07:49:27;;;;;;;6.57;4.75;;;;;;;;;;6309235;22;20170;-62
2022/04/24 07:51:53;;;;;;;6.35;4.20;;;;;;;;;;6309341;22;20472;-64
2022/04/24 07:54:18;;;;;;;5.47;4.35;;;;;;;;;;6309289;22;20139;-63
2022/04/24 07:56:46;;;;;;;8.63;4.93;;;;;;;;;;6309115;22;20492;-63
2022/04/24 07:59:12;;;;;;;6.85;4.43;;;;;;;;;;6309256;22;20153;-63
2022/04/24 08:01:38;;;;;;;7.32;4.95;;;;;;;;;;6309510;22;20143;-63
2022/04/24 08:04:04;;;;;;;7.75;4.93;;;;;;;;;;6309102;22;20566;-63
2022/04/24 08:06:30;;;;;;;7.53;4.47;;;;;;;;;;6309013;22;20139;-63
2022/04/24 08:08:55;;;;;;;6.65;4.97;;;;;;;;;;6308731;22;20143;-63
2022/04/24 08:11:21;;;;;;;7.38;4.32;;;;;;;;;;6309271;22;20203;-63
2022/04/24 08:13:47;;;;;;;8.60;5.28;;;;;;;;;;6308646;22;20539;-62
2022/04/24 08:16:13;;;;;;;6.97;3.83;;;;;;;;;;6308864;22;20139;-63
2022/04/24 08:18:39;;;;;;;6.30;3.55;;;;;;;;;;6308614;22;20157;-64
2022/04/24 08:21:05;;;;;;;6.57;3.65;;;;;;;;;;6308950;22;20135;-63
2022/04/24 08:23:31;;;;;;;6.22;3.55;;;;;;;;;;6310870;22;20139;-63
2022/04/24 08:25:57;;;;;;;7.80;3.88;;;;;;;;;;6314085;22;20528;-63
2022/04/24 08:28:25;;;;;;;8.95;4.20;;;;;;;;;;6318208;22;20147;-62
2022/04/24 08:30:51;;;;;;;6.35;3.92;;;;;;;;;;6321380;22;20256;-64
2022/04/24 08:33:17;;;;;;;6.85;3.80;;;;;;;;;;6324068;22;20420;-64
2022/04/24 08:35:45;;;;;;;6.10;4.28;;;;;;;;;;6325168;22;20153;-64
2022/04/24 08:38:11;;;;;;;6.57;3.60;;;;;;;;;;6318698;22;20151;-62
2022/04/24 08:40:37;;;;;;;6.60;3.55;;;;;;;;;;6319774;22;20169;-63
2022/04/24 08:43:03;;;;;;;6.10;3.60;;;;;;;;;;6320851;22;20225;-64
2022/04/24 08:45:30;;;;;;;7.07;3.72;;;;;;;;;;6319587;22;20161;-62
2022/04/24 08:47:56;;;;;;;6.15;3.45;;;;;;;;;;6321775;22;20538;-63
2022/04/24 08:50:23;;;;;;;6.65;3.30;;;;;;;;;;6321545;22;20250;-63
2022/04/24 08:52:50;;;;;;;7.53;3.45;;;;;;;;;;6325754;22;20139;-63
2022/04/24 08:55:16;;;;;;;6.65;3.80;;;;;;;;;;6329808;22;20188;-63
2022/04/24 08:57:42;;;;;;;5.15;3.92;;;;;;;;;;6329054;22;20143;-64
2022/04/24 09:00:08;;;;;;;5.53;3.88;;;;;;;;;;6328280;22;20182;-63
2022/04/24 09:02:35;;;;;;;6.15;3.42;;;;;;;;;;6330574;22;20154;-64
2022/04/24 09:05:01;;;;;;;7.47;3.63;;;;;;;;;;6329362;22;20139;-64
2022/04/24 09:07:33;;;;;;;7.35;4.43;;;;;;;;;;6327733;22;20147;-63
2022/04/24 09:10:03;;;;;;;6.32;3.40;;;;;;;;;;6321279;22;20177;-64
2022/04/24 09:12:29;;;;;;;6.32;3.38;;;;;;;;;;6308734;22;20276;-63
2022/04/24 09:14:56;;;;;;;7.00;3.20;;;;;;;;;;6308682;22;20135;-63
2022/04/24 09:17:23;;;;;;;7.30;3.30;;;;;;;;;;6308666;22;20131;-64
2022/04/24 09:19:49;;;;;;;5.35;2.95;;;;;;;;;;6308690;22;20139;-64
2022/04/24 09:22:15;;;;;;;6.47;3.25;;;;;;;;;;6308500;22;20439;-63
2022/04/24 09:24:47;;;;;;;5.43;3.50;;;;;;;;;;6308552;22;20178;-63
2022/04/24 09:27:22;;;;;;;6.65;3.80;;;;;;;;;;6308561;22;20154;-64
2022/04/24 09:29:55;;;;;;;5.55;3.78;;;;;;;;;;6308388;22;20185;-63
2022/04/24 09:32:22;;;;;;;5.30;3.67;;;;;;;;;;6308535;22;20602;-63
2022/04/24 09:34:49;;;;;;;7.22;3.55;;;;;;;;;;6308502;22;20210;-62
2022/04/24 09:37:15;;;;;;;4.80;3.50;;;;;;;;;;6308854;22;20158;-62
2022/04/24 09:39:41;;;;;;;6.32;3.53;;;;;;;;;;6308724;22;20216;-62
2022/04/24 09:42:11;;;;;;;5.00;3.70;;;;;;;;;;6308779;22;20166;-63
2022/04/24 09:44:38;;;;;;;7.07;3.38;;;;;;;;;;6308759;22;20549;-64
2022/04/24 09:47:05;;;;;;;7.22;3.38;;;;;;;;;;6308565;22;20138;-64
2022/04/24 09:49:38;;;;;;;7.22;3.30;;;;;;;;;;6308135;22;20159;-62
2022/04/24 09:52:11;;;;;;;8.65;4.03;;;;;;;;;;6309020;22;20139;-62
2022/04/24 09:54:47;;;;;;;6.47;3.33;;;;;;;;;;6310389;22;20574;-63
2022/04/24 09:57:14;;;;;;;8.88;4.10;;;;;;;;;;6310774;22;20147;-63
2022/04/24 09:59:41;;;;;;;6.40;4.07;;;;;;;;;;6310019;22;20143;-63
2022/04/24 10:02:09;;;;;;;6.30;3.92;;;;;;;;;;6310350;22;20158;-63
2022/04/24 10:04:35;;;;;;;8.40;4.07;;;;;;;;;;6310515;22;20143;-63
2022/04/24 10:07:05;;;;;;;9.18;3.90;;;;;;;;;;6310963;22;20449;-63
2022/04/24 10:09:33;;;;;;;6.05;4.13;;;;;;;;;;6309899;22;20578;-61
2022/04/24 10:12:02;;;;;;;7.72;3.67;;;;;;;;;;6310400;22;20218;-62
2022/04/24 10:14:28;;;;;;;9.13;4.10;;;;;;;;;;6310303;22;20171;-63
2022/04/24 10:17:04;;;;;;;5.85;3.20;;;;;;;;;;6310469;22;20193;-62
2022/04/24 10:19:42;;;;;;;5.63;3.60;;;;;;;;;;6310934;22;20213;-61
2022/04/24 10:22:27;;;;;;;5.82;3.33;;;;;;;;;;6310273;22;20134;-63
2022/04/24 10:24:59;;;;;;;5.05;3.22;;;;;;;;;;6310141;22;20162;-62
2022/04/24 10:27:35;;;;;;;6.40;3.20;;;;;;;;;;6310268;22;20135;-63
2022/04/24 10:30:01;;;;;;;6.80;3.60;;;;;;;;;;6309862;22;20221;-63
2022/04/24 10:32:30;;;;;;;6.90;3.75;;;;;;;;;;6309905;22;20150;-64
2022/04/24 10:34:56;;;;;;;4.32;3.10;;;;;;;;;;6309906;22;20142;-63
2022/04/24 10:37:28;;;;;;;7.63;3.90;;;;;;;;;;6309584;22;20166;-63
2022/04/24 10:40:02;;;;;;;6.25;3.65;;;;;;;;;;6309575;22;20218;-63
2022/04/24 10:42:32;;;;;;;5.85;3.97;;;;;;;;;;6310080;22;20130;-63
2022/04/24 10:45:04;;;;;;;6.13;3.25;;;;;;;;;;6309574;22;20139;-63
2022/04/24 10:47:42;;;;;;;4.70;3.60;;;;;;;;;;6310027;22;20167;-63
2022/04/24 10:50:09;;;;;;;8.32;3.88;;;;;;;;;;6309824;22;20155;-63
2022/04/24 10:52:43;;;;;;;7.25;4.50;;;;;;;;;;6309846;22;20139;-62
2022/04/24 10:55:12;;;;;;;4.82;3.00;;;;;;;;;;6309640;22;20143;-63
2022/04/24 10:57:41;;;;;;;8.02;3.85;;;;;;;;;;6309937;22;20139;-63
2022/04/24 11:00:19;;;;;;;7.63;4.18;;;;;;;;;;6309264;22;20555;-63
2022/04/24 11:02:45;;;;;;;8.05;4.75;;;;;;;;;;6309809;22;20131;-63
2022/04/24 11:05:11;;;;;;;7.15;4.03;;;;;;;;;;6309201;22;20208;-63
2022/04/24 11:07:37;;;;;;;6.88;3.90;;;;;;;;;;6309650;22;20139;-64
2022/04/24 11:10:05;;;;;;;8.15;4.05;;;;;;;;;;6309204;22;20165;-63
2022/04/24 11:12:35;;;;;;;6.45;4.03;;;;;;;;;;6309407;22;20139;-64
2022/04/24 11:15:02;;;;;;;9.43;4.65;;;;;;;;;;6309591;22;20227;-64
2022/04/24 11:17:28;;;;;;;5.82;4.25;;;;;;;;;;6309281;22;20596;-63
2022/04/24 11:19:59;;;;;;;7.68;4.30;;;;;;;;;;6309731;22;20143;-63
2022/04/24 11:22:24;;;;;;;6.63;4.30;;;;;;;;;;6309513;22;20218;-63
2022/04/24 11:24:56;;;;;;;6.28;3.85;;;;;;;;;;6309268;22;20175;-63
2022/04/24 11:27:25;;;;;;;7.65;4.20;;;;;;;;;;6309509;22;20185;-63
2022/04/24 11:29:51;;;;;;;8.77;4.25;;;;;;;;;;6309439;22;20181;-64
2022/04/24 11:32:18;;;;;;;6.97;4.20;;;;;;;;;;6309820;22;20138;-62
2022/04/24 11:34:44;;;;;;;9.23;4.10;;;;;;;;;;6309617;22;20222;-63
2022/04/24 11:37:10;;;;;;;6.10;3.38;;;;;;;;;;6309436;22;20163;-64
2022/04/24 11:39:38;;;;;;;7.75;4.63;;;;;;;;;;6309215;22;20139;-64
2022/04/24 11:42:04;;;;;;;6.07;4.00;;;;;;;;;;6309130;22;20226;-64
2022/04/24 11:50:15;;;;;;;7.65;4.25;;;;;;;;;;6309517;22;20597;-64
2022/04/24 11:52:46;;;;;;;6.30;3.90;;;;;;;;;;6309857;22;20214;-64
2022/04/24 11:55:21;;;;;;;6.10;3.90;;;;;;;;;;6309548;22;20423;-63
2022/04/24 11:58:02;;;;;;;7.45;4.20;;;;;;;;;;6308795;22;20138;-65
2022/04/24 12:00:38;;;;;;;8.07;3.92;;;;;;;;;;6309510;22;20127;-61
2022/04/24 12:03:06;;;;;;;8.55;4.13;;;;;;;;;;6309030;22;20142;-63
2022/04/24 12:05:32;;;;;;;6.15;3.65;;;;;;;;;;6309503;22;20204;-63
2022/04/24 12:07:58;;;;;;;6.90;3.88;;;;;;;;;;6309366;22;20174;-63
2022/04/24 12:10:25;;;;;;;6.53;4.10;;;;;;;;;;6308785;22;20212;-63
2022/04/24 12:12:52;;;;;;;6.72;4.15;;;;;;;;;;6308939;22;20135;-64
2022/04/24 12:15:19;;;;;;;7.55;4.22;;;;;;;;;;6281366;22;20150;-63
2022/04/24 12:17:49;;;;;;;6.20;4.32;;;;;;;;;;6308689;22;20432;-63
2022/04/24 12:20:15;;;;;;;6.97;4.13;;;;;;;;;;6308762;22;20550;-64
2022/04/24 12:22:41;;;;;;;8.38;4.40;;;;;;;;;;6308830;22;20166;-63
2022/04/24 12:25:07;;;;;;;7.75;4.38;;;;;;;;;;6308670;22;20213;-64
2022/04/24 12:27:33;;;;;;;6.72;4.70;;;;;;;;;;6309348;22;20150;-62
2022/04/24 12:29:59;;;;;;;7.53;3.58;;;;;;;;;;6308766;22;20179;-62
2022/04/24 12:32:28;;;;;;;8.50;4.55;;;;;;;;;;6308488;22;20166;-63
2022/04/24 12:34:54;;;;;;;6.90;3.88;;;;;;;;;;6308576;22;20135;-62
2022/04/24 12:37:33;;;;;;;9.90;4.40;;;;;;;;;;6308433;22;20215;-63
2022/04/24 12:39:59;;;;;;;7.03;4.20;;;;;;;;;;6308551;22;20554;-63
2022/04/24 12:42:25;;;;;;;8.45;4.43;;;;;;;;;;6308342;22;20139;-63
2022/04/24 12:44:51;;;;;;;4.90;3.83;;;;;;;;;;6308664;22;20235;-62
2022/04/24 12:47:18;;;;;;;8.40;3.83;;;;;;;;;;6308860;22;20234;-62
2022/04/24 12:49:44;;;;;;;7.07;3.78;;;;;;;;;;6308880;22;20185;-62
2022/04/24 12:52:10;;;;;;;6.30;4.00;;;;;;;;;;6308778;22;20139;-62
2022/04/24 12:54:37;;;;;;;6.55;4.10;;;;;;;;;;6309055;22;20171;-63
2022/04/24 12:57:06;;;;;;;5.30;3.58;;;;;;;;;;6308756;22;20168;-62
2022/04/24 12:59:34;;;;;;;8.00;4.70;;;;;;;;;;6308287;22;20436;-62
2022/04/24 13:02:00;;;;;;;8.38;4.75;;;;;;;;;;6308284;22;20153;-61
2022/04/24 13:04:26;;;;;;;7.93;5.05;;;;;;;;;;6308305;22;20174;-62
2022/04/24 13:06:52;;;;;;;4.72;3.95;;;;;;;;;;6308213;22;20135;-61
2022/04/24 13:09:18;;;;;;;5.32;4.10;;;;;;;;;;6308477;22;20237;-63
2022/04/24 13:11:44;;;;;;;6.72;4.30;;;;;;;;;;6308563;22;20142;-62
2022/04/24 13:14:10;;;;;;;7.78;4.70;;;;;;;;;;6308658;22;20142;-62
2022/04/24 13:19:20;;;;;;;7.18;4.00;;;;;;;;;;6308478;22;20145;-62
2022/04/24 13:21:46;;;;;;;6.55;3.92;;;;;;;;;;6308566;22;20222;-61
2022/04/24 13:24:13;;;;;;;5.60;3.78;;;;;;;;;;6308519;22;20146;-63
2022/04/24 13:26:39;;;;;;;7.50;3.97;;;;;;;;;;6308741;22;20143;-62
2022/04/24 13:29:05;;;;;;;5.47;4.07;;;;;;;;;;6308018;22;20157;-61
2022/04/24 13:31:31;;;;;;;5.13;4.07;;;;;;;;;;6308678;22;20150;-62
2022/04/24 13:33:57;;;;;;;6.18;4.10;;;;;;;;;;6308957;22;20459;-63
2022/04/24 13:36:23;;;;;;;6.30;3.97;;;;;;;;;;6308431;22;20143;-62
2022/04/24 13:38:49;;;;;;;6.55;4.15;;;;;;;;;;6308505;22;20143;-62
2022/04/24 13:41:15;;;;;;;6.63;4.90;;;;;;;;;;6308734;22;20546;-63
2022/04/24 13:43:42;;;;;;;6.22;3.80;;;;;;;;;;6308609;22;20135;-62
2022/04/24 13:46:09;;;;;;;6.30;3.88;;;;;;;;;;6308971;22;20196;-62
2022/04/24 13:48:35;;;;;;;6.65;4.10;;;;;;;;;;6308825;22;20233;-64
2022/04/24 13:51:02;;;;;;;5.95;4.05;;;;;;;;;;6310996;22;20593;-61
2022/04/24 13:53:29;;;;;;;5.47;3.85;;;;;;;;;;6309354;22;20146;-63
2022/04/24 13:55:56;;;;;;;10.02;4.18;;;;;;;;;;6307990;22;20449;-62
2022/04/24 13:58:22;;;;;;;9.57;4.50;;;;;;;;;;6308435;22;20149;-63
2022/04/24 14:00:49;;;;;;;5.47;4.00;;;;;;;;;;6308175;22;20143;-61
2022/04/24 14:03:16;;;;;;;9.95;4.22;;;;;;;;;;6308566;22;20143;-62
2022/04/24 14:05:42;;;;;;;7.30;4.80;;;;;;;;;;6308802;22;20146;-62
2022/04/24 14:08:16;;;;;;;9.07;4.10;;;;;;;;;;6308346;22;20241;-62
2022/04/24 14:10:43;;;;;;;7.15;3.72;;;;;;;;;;6308411;22;20193;-61
2022/04/24 14:13:09;;;;;;;7.78;4.55;;;;;;;;;;6308066;22;20135;-62
2022/04/24 14:15:35;;;;;;;6.93;4.30;;;;;;;;;;6308185;22;20145;-62
2022/04/24 14:18:02;;;;;;;7.93;4.60;;;;;;;;;;6307739;22;20146;-63
2022/04/24 14:20:28;;;;;;;6.53;4.03;;;;;;;;;;6307964;22;20138;-61
2022/04/24 14:22:54;;;;;;;10.48;4.63;;;;;;;;;;6308085;22;20147;-62
2022/04/24 14:25:20;;;;;;;6.38;4.03;;;;;;;;;;6308406;22;20468;-61
2022/04/24 14:27:46;;;;;;;7.95;4.82;;;;;;;;;;6307716;22;20147;-62
2022/04/24 14:30:13;;;;;;;7.38;4.75;;;;;;;;;;6307772;22;20538;-62
2022/04/24 14:32:40;;;;;;;5.63;3.90;;;;;;;;;;6307681;22;20139;-62
2022/04/24 14:35:08;;;;;;;9.35;4.13;;;;;;;;;;6308341;22;20431;-62
2022/04/24 14:37:34;;;;;;;7.88;4.90;;;;;;;;;;6308039;22;20554;-61
2022/04/24 14:40:00;;;;;;;6.82;4.40;;;;;;;;;;6309309;22;20183;-62
2022/04/24 14:42:26;;;;;;;6.82;3.67;;;;;;;;;;6283924;22;20151;-62
2022/04/24 14:44:52;;;;;;;6.07;3.90;;;;;;;;;;6310163;22;20151;-63
2022/04/24 14:55:47;;;;;;;5.63;4.35;;;;;;;;;;6309938;22;20139;-63
2022/04/24 14:58:14;;;;;;;6.22;4.38;;;;;;;;;;6310480;22;20123;-61